createdAt,value
2023-04-13T00:01:11.878Z,32.93
2023-04-13T00:03:41.817Z,34.43
2023-04-13T00:06:11.257Z,31.73
2023-04-13T00:08:39.598Z,35.10
2023-04-13T00:11:08.517Z,35.20
2023-04-13T00:13:41.381Z,32.30
2023-04-13T00:16:10.747Z,33.43
2023-04-13T00:18:40.091Z,39.67
2023-04-13T00:21:09.977Z,38.43
2023-04-13T00:23:37.929Z,36.17
2023-04-13T00:26:06.473Z,34.90
2023-04-13T00:28:34.517Z,31.60
2023-04-13T00:31:02.717Z,33.40
2023-04-13T00:33:31.070Z,35.23
2023-04-13T00:35:59.074Z,34.47
2023-04-13T00:38:29.920Z,37.90
2023-04-13T00:40:57.956Z,34.37
2023-04-13T00:43:26.240Z,34.90
2023-04-13T00:45:54.328Z,36.83
2023-04-13T00:48:23.488Z,37.77
2023-04-13T00:50:51.523Z,38.37
2023-04-13T00:53:19.739Z,34.67
2023-04-13T00:55:49.229Z,37.80
2023-04-13T00:58:17.542Z,45.90
2023-04-13T01:00:45.593Z,44.77
2023-04-13T01:03:13.752Z,43.53
2023-04-13T01:05:50.366Z,44.90
2023-04-13T01:08:23.278Z,52.23
2023-04-13T01:10:57.581Z,43.57
2023-04-13T01:13:32.326Z,44.97
2023-04-13T01:16:04.243Z,46.20
2023-04-13T01:18:35.530Z,44.47
2023-04-13T01:21:04.714Z,43.97
2023-04-13T01:23:47.548Z,46.43
2023-04-13T01:26:17.338Z,47.03
2023-04-13T01:28:48.434Z,50.43
2023-04-13T01:31:18.882Z,48.90
2023-04-13T01:33:47.904Z,46.97
2023-04-13T01:36:16.931Z,38.47
2023-04-13T01:38:44.968Z,42.60
2023-04-13T01:41:12.945Z,46.53
2023-04-13T01:43:41.211Z,42.60
2023-04-13T01:46:14.137Z,45.73
2023-04-13T01:48:47.017Z,47.33
2023-04-13T01:51:17.892Z,48.57
2023-04-13T01:53:49.054Z,42.27
2023-04-13T01:56:19.288Z,45.47
2023-04-13T01:58:49.731Z,42.50
2023-04-13T02:01:19.241Z,43.27
2023-04-13T02:03:47.392Z,40.40
2023-04-13T02:06:15.597Z,43.83
2023-04-13T02:08:44.118Z,43.17
2023-04-13T02:11:13.272Z,51.37
2023-04-13T02:13:41.224Z,57.83
2023-04-13T02:16:10.102Z,54.03
2023-04-13T02:18:41.083Z,54.87
2023-04-13T02:21:11.261Z,49.60
2023-04-13T02:23:41.883Z,48.73
2023-04-13T02:26:13.051Z,49.50
2023-04-13T02:28:41.841Z,55.80
2023-04-13T02:31:09.792Z,53.73
2023-04-13T02:33:39.895Z,51.63
2023-04-13T02:36:08.865Z,53.60
2023-04-13T02:38:37.434Z,52.90
2023-04-13T02:41:06.561Z,50.73
2023-04-13T02:43:35.700Z,50.80
2023-04-13T02:46:04.314Z,52.73
2023-04-13T02:48:32.361Z,46.20
2023-04-13T02:51:02.423Z,46.03
2023-04-13T02:53:30.522Z,49.37
2023-04-13T02:55:58.463Z,46.30
2023-04-13T02:58:26.723Z,46.37
2023-04-13T03:00:54.748Z,38.37
2023-04-13T03:03:22.831Z,46.23
2023-04-13T03:05:51.373Z,42.60
2023-04-13T03:08:21.203Z,42.77
2023-04-13T03:10:49.176Z,43.27
2023-04-13T03:13:17.202Z,41.20
2023-04-13T03:15:45.245Z,41.20
2023-04-13T03:18:13.218Z,41.70
2023-04-13T03:20:41.847Z,42.37
2023-04-13T03:23:09.830Z,43.13
2023-04-13T03:25:39.644Z,42.77
2023-04-13T03:28:07.838Z,39.83
2023-04-13T03:30:36.062Z,42.10
2023-04-13T03:33:04.056Z,42.00
2023-04-13T03:35:32.123Z,37.40
2023-04-13T03:38:00.155Z,41.53
2023-04-13T03:40:28.187Z,45.40
2023-04-13T03:42:57.527Z,58.37
2023-04-13T03:45:25.550Z,46.67
2023-04-13T03:47:53.503Z,45.43
2023-04-13T03:50:21.739Z,45.60
2023-04-13T03:52:49.743Z,41.90
2023-04-13T03:55:18.274Z,46.67
2023-04-13T03:57:46.690Z,42.03
2023-04-13T04:00:17.277Z,46.27
2023-04-13T04:02:45.642Z,48.57
2023-04-13T04:05:13.895Z,41.37
2023-04-13T04:07:41.881Z,46.40
2023-04-13T04:10:10.584Z,42.10
2023-04-13T04:12:38.574Z,40.70
2023-04-13T04:15:07.840Z,38.23
2023-04-13T04:17:39.401Z,38.37
2023-04-13T04:20:10.207Z,38.27
2023-04-13T04:22:38.574Z,39.07
2023-04-13T04:25:07.351Z,36.93
2023-04-13T04:27:38.882Z,34.73
2023-04-13T04:30:10.890Z,38.07
2023-04-13T04:32:40.739Z,30.50
2023-04-13T04:35:09.735Z,35.87
2023-04-13T04:37:38.921Z,32.60
2023-04-13T04:40:09.515Z,34.23
2023-04-13T04:42:38.387Z,29.80
2023-04-13T04:45:07.189Z,30.77
2023-04-13T04:47:42.220Z,35.50
2023-04-13T04:50:12.908Z,32.30
2023-04-13T04:52:41.670Z,35.00
2023-04-13T04:55:10.597Z,33.90
2023-04-13T04:57:38.659Z,29.97
2023-04-13T05:00:10.890Z,33.23
2023-04-13T05:02:39.150Z,33.17
2023-04-13T05:05:09.138Z,36.40
2023-04-13T05:07:40.099Z,36.27
2023-04-13T05:10:10.222Z,29.77
2023-04-13T05:12:38.492Z,32.17
2023-04-13T05:15:07.927Z,33.20
2023-04-13T05:17:36.442Z,32.33
2023-04-13T05:20:06.744Z,30.27
2023-04-13T05:22:34.791Z,37.57
2023-04-13T05:25:04.193Z,34.67
2023-04-13T05:27:32.239Z,34.70
2023-04-13T05:30:00.239Z,36.23
2023-04-13T05:32:28.325Z,34.33
2023-04-13T05:34:56.309Z,33.17
2023-04-13T05:37:24.369Z,41.23
2023-04-13T05:39:52.392Z,31.77
2023-04-13T05:42:21.714Z,35.10
2023-04-13T05:44:49.748Z,36.77
2023-04-13T05:47:19.557Z,32.47
2023-04-13T05:49:47.537Z,34.87
2023-04-13T05:52:15.514Z,31.70
2023-04-13T05:54:43.451Z,31.77
2023-04-13T05:57:11.568Z,32.97
2023-04-13T05:59:41.204Z,32.83
2023-04-13T06:02:09.393Z,30.20
2023-04-13T06:04:38.066Z,27.00
2023-04-13T06:07:06.993Z,41.90
2023-04-13T06:09:34.995Z,34.10
2023-04-13T06:12:03.461Z,31.93
2023-04-13T06:14:32.046Z,32.30
2023-04-13T06:17:01.919Z,35.03
2023-04-13T06:19:29.970Z,29.73
2023-04-13T06:21:58.557Z,29.47
2023-04-13T06:24:27.316Z,30.67
2023-04-13T06:26:55.325Z,31.83
2023-04-13T06:29:23.363Z,39.90
2023-04-13T06:31:51.873Z,31.77
2023-04-13T06:34:21.260Z,29.13
2023-04-13T06:36:49.263Z,38.30
2023-04-13T06:39:17.509Z,34.37
2023-04-13T06:41:45.507Z,27.63
2023-04-13T06:44:13.486Z,25.23
2023-04-13T06:46:41.748Z,30.37
2023-04-13T06:49:10.003Z,24.73
2023-04-13T06:51:39.776Z,30.63
2023-04-13T06:54:08.468Z,25.90
2023-04-13T06:56:36.662Z,26.23
2023-04-13T06:59:04.952Z,22.73
2023-04-13T07:01:33.507Z,25.30
2023-04-13T07:04:02.554Z,24.87
2023-04-13T07:06:32.144Z,26.03
2023-04-13T07:09:01.608Z,22.23
2023-04-13T07:11:31.331Z,26.27
2023-04-13T07:13:59.339Z,24.43
2023-04-13T07:16:27.410Z,22.17
2023-04-13T07:18:55.419Z,23.47
2023-04-13T07:21:23.393Z,23.50
2023-04-13T07:23:51.351Z,22.33
2023-04-13T07:26:20.792Z,21.20
2023-04-13T07:28:48.744Z,18.57
2023-04-13T07:31:17.330Z,18.93
2023-04-13T07:33:45.554Z,20.73
2023-04-13T07:36:16.261Z,17.93
2023-04-13T07:38:44.591Z,19.43
2023-04-13T07:41:12.776Z,19.03
2023-04-13T07:43:42.190Z,22.83
2023-04-13T07:46:11.907Z,20.67
2023-04-13T07:48:40.257Z,17.00
2023-04-13T07:51:16.660Z,22.43
2023-04-13T07:53:44.654Z,18.50
2023-04-13T07:56:12.641Z,21.60
2023-04-13T07:58:42.572Z,18.73
2023-04-13T08:01:11.424Z,15.20
2023-04-13T08:03:39.685Z,13.53
2023-04-13T08:06:08.437Z,17.48
2023-04-13T08:08:36.478Z,16.67
2023-04-13T08:11:04.756Z,20.57
2023-04-13T08:13:32.897Z,10.95
2023-04-13T08:16:02.208Z,12.55
2023-04-13T08:18:32.292Z,10.23
2023-04-13T08:21:00.420Z,13.95
2023-04-13T08:23:28.515Z,10.05
2023-04-13T08:25:56.513Z,8.88
2023-04-13T08:28:24.545Z,10.70
2023-04-13T08:30:52.492Z,9.65
2023-04-13T08:33:22.022Z,14.52
2023-04-13T08:35:50.096Z,14.30
2023-04-13T08:38:19.542Z,9.68
2023-04-13T08:40:50.104Z,16.60
2023-04-13T08:43:20.401Z,14.23
2023-04-13T08:45:48.943Z,15.18
2023-04-13T08:48:19.354Z,12.98
2023-04-13T08:50:48.854Z,17.02
2023-04-13T08:53:18.316Z,16.02
2023-04-13T08:55:47.598Z,15.25
2023-04-13T08:58:20.623Z,15.38
2023-04-13T09:00:51.051Z,17.40
2023-04-13T09:03:25.461Z,19.00
2023-04-13T09:06:00.196Z,18.48
2023-04-13T09:08:29.410Z,16.05
2023-04-13T09:10:58.406Z,15.25
2023-04-13T09:13:29.518Z,17.80
2023-04-13T09:15:57.556Z,13.75
2023-04-13T09:18:25.698Z,17.60
2023-04-13T09:20:58.774Z,12.70
2023-04-13T09:23:27.154Z,15.30
2023-04-13T09:26:06.064Z,11.52
2023-04-13T09:28:34.227Z,15.57
2023-04-13T09:31:05.885Z,9.65
2023-04-13T09:33:45.116Z,9.30
2023-04-13T09:36:16.739Z,10.60
2023-04-13T09:38:46.029Z,10.85
2023-04-13T09:41:14.194Z,9.43
2023-04-13T09:43:42.193Z,9.45
2023-04-13T09:46:14.564Z,7.95
2023-04-13T09:48:43.848Z,7.25
2023-04-13T09:51:11.985Z,7.70
2023-04-13T09:53:47.438Z,9.50
2023-04-13T09:56:16.187Z,9.18
2023-04-13T09:58:45.697Z,12.13
2023-04-13T10:01:15.314Z,10.68
2023-04-13T10:03:43.968Z,8.98
2023-04-13T10:06:13.008Z,9.48
2023-04-13T10:08:41.980Z,7.50
2023-04-13T10:11:15.522Z,8.57
2023-04-13T10:13:48.755Z,8.30
2023-04-13T10:16:42.385Z,11.80
2023-04-13T10:19:13.421Z,8.55
2023-04-13T10:21:45.290Z,8.05
2023-04-13T10:24:14.633Z,7.22
2023-04-13T10:26:45.160Z,8.52
2023-04-13T10:29:14.818Z,8.02
2023-04-13T10:31:46.829Z,10.85
2023-04-13T10:34:25.749Z,13.48
2023-04-13T10:36:56.221Z,11.82
2023-04-13T10:39:28.313Z,9.25
2023-04-13T10:42:05.913Z,12.48
2023-04-13T10:44:44.945Z,9.43
2023-04-13T10:47:14.161Z,11.35
2023-04-13T10:49:43.063Z,10.98
2023-04-13T10:52:11.938Z,10.50
2023-04-13T10:54:41.218Z,8.55
2023-04-13T10:57:12.459Z,10.18
2023-04-13T10:59:55.512Z,7.20
2023-04-13T11:02:27.180Z,8.68
2023-04-13T11:04:55.464Z,11.57
2023-04-13T11:07:26.263Z,8.27
2023-04-13T11:10:02.958Z,8.23
2023-04-13T11:12:32.924Z,8.18
2023-04-13T11:15:01.655Z,10.10
2023-04-13T11:17:29.760Z,12.38
2023-04-13T11:19:58.441Z,10.70
2023-04-13T11:22:28.752Z,9.88
2023-04-13T11:25:08.623Z,12.57
2023-04-13T11:27:38.663Z,8.82
2023-04-13T11:30:09.277Z,12.98
2023-04-13T11:32:41.494Z,8.80
2023-04-13T11:35:10.285Z,11.75
2023-04-13T11:37:40.821Z,10.20
2023-04-13T11:40:16.903Z,10.65
2023-04-13T11:42:48.078Z,10.65
2023-04-13T11:45:18.509Z,7.93
2023-04-13T11:47:48.275Z,7.25
2023-04-13T11:50:17.685Z,8.10
2023-04-13T11:52:46.670Z,19.27
2023-04-13T11:55:23.070Z,7.20
2023-04-13T11:57:54.953Z,8.25
2023-04-13T12:00:26.074Z,9.80
2023-04-13T12:05:28.275Z,9.73
2023-04-13T12:07:58.591Z,8.13
2023-04-13T12:10:38.520Z,10.60
2023-04-13T12:16:01.731Z,8.43
2023-04-13T12:18:37.523Z,12.77
2023-04-13T12:21:10.286Z,8.65
2023-04-13T12:23:38.433Z,7.63
2023-04-13T12:28:39.423Z,10.70
2023-04-13T12:31:09.843Z,9.95
2023-04-13T12:33:38.241Z,10.48
2023-04-13T12:36:06.782Z,14.13
2023-04-13T12:38:35.167Z,9.05
2023-04-13T12:41:03.876Z,9.13
2023-04-13T12:43:31.913Z,13.60
2023-04-13T12:46:01.194Z,11.30
2023-04-13T12:48:30.396Z,12.27
2023-04-13T12:50:58.445Z,10.93
2023-04-13T12:53:26.456Z,16.38
2023-04-13T12:55:54.614Z,17.83
2023-04-13T12:58:22.660Z,15.70
2023-04-13T13:00:50.759Z,14.20
2023-04-13T13:03:20.416Z,16.23
2023-04-13T13:05:48.612Z,15.30
2023-04-13T13:08:16.648Z,12.52
2023-04-13T13:10:44.732Z,16.20
2023-04-13T13:13:17.141Z,16.52
2023-04-13T13:15:45.194Z,13.50
2023-04-13T13:18:13.833Z,15.20
2023-04-13T13:20:43.269Z,13.18
2023-04-13T13:23:12.004Z,12.75
2023-04-13T13:25:43.678Z,12.80
2023-04-13T13:28:17.215Z,16.30
2023-04-13T13:30:45.250Z,13.48
2023-04-13T13:33:13.237Z,12.57
2023-04-13T13:35:42.669Z,12.18
2023-04-13T13:38:10.726Z,16.30
2023-04-13T13:40:38.743Z,14.50
2023-04-13T13:43:06.744Z,12.50
2023-04-13T13:45:34.730Z,13.88
2023-04-13T13:48:02.785Z,13.73
2023-04-13T13:50:30.906Z,16.10
2023-04-13T13:53:04.346Z,12.70
2023-04-13T13:55:32.902Z,17.20
2023-04-13T13:58:00.871Z,16.50
2023-04-13T14:00:29.169Z,21.23
2023-04-13T14:02:57.325Z,18.02
2023-04-13T14:05:25.452Z,17.40
2023-04-13T14:07:53.413Z,13.80
2023-04-13T14:10:22.946Z,16.03
2023-04-13T14:12:51.977Z,19.33
2023-04-13T14:15:20.232Z,15.40
2023-04-13T14:17:58.665Z,14.95
2023-04-13T14:20:35.128Z,18.45
2023-04-13T14:23:03.351Z,16.20
2023-04-13T14:25:32.707Z,17.58
2023-04-13T14:28:01.021Z,16.27
2023-04-13T14:30:29.195Z,18.20
2023-04-13T14:32:57.316Z,17.65
2023-04-13T14:35:25.884Z,24.58
2023-04-13T14:37:54.555Z,18.23
2023-04-13T14:40:23.687Z,19.35
2023-04-13T14:42:53.777Z,22.27
2023-04-13T14:45:22.166Z,21.23
2023-04-13T14:47:50.657Z,26.02
2023-04-13T14:50:18.877Z,24.80
2023-04-13T14:52:47.671Z,21.65
2023-04-13T14:55:16.532Z,20.27
2023-04-13T14:57:44.891Z,18.73
2023-04-13T15:00:21.239Z,20.08
2023-04-13T15:02:50.408Z,23.08
2023-04-13T15:05:18.842Z,23.63
2023-04-13T15:07:47.948Z,21.40
2023-04-13T15:10:16.748Z,23.35
2023-04-13T15:12:44.801Z,21.43
2023-04-13T15:15:14.662Z,21.77
2023-04-13T15:17:42.751Z,22.93
2023-04-13T15:20:12.085Z,24.67
2023-04-13T15:22:40.149Z,24.70
2023-04-13T15:25:08.798Z,21.30
2023-04-13T15:27:36.993Z,25.87
2023-04-13T15:30:05.526Z,24.07
2023-04-13T15:32:36.828Z,26.57
2023-04-13T15:35:05.115Z,21.40
2023-04-13T15:37:33.047Z,23.10
2023-04-13T15:40:01.413Z,28.20
2023-04-13T15:42:29.783Z,25.53
2023-04-13T15:44:57.750Z,27.60
2023-04-13T15:47:25.747Z,29.53
2023-04-13T15:49:55.348Z,27.87
2023-04-13T15:52:23.715Z,24.47
2023-04-13T15:54:51.967Z,22.27
2023-04-13T15:57:20.010Z,20.90
2023-04-13T15:59:48.004Z,26.17
2023-04-13T16:02:16.287Z,26.77
2023-04-13T16:04:44.640Z,27.33
2023-04-13T16:07:14.706Z,25.70
2023-04-13T16:09:44.823Z,27.30
2023-04-13T16:12:13.010Z,24.63
2023-04-13T16:14:41.996Z,23.30
2023-04-13T16:17:10.531Z,27.07
2023-04-13T16:19:39.754Z,31.97
2023-04-13T16:22:10.485Z,30.40
2023-04-13T16:24:41.109Z,32.37
2023-04-13T16:27:10.194Z,32.00
2023-04-13T16:29:41.455Z,29.87
2023-04-13T16:32:09.617Z,31.30
2023-04-13T16:34:37.660Z,30.20
2023-04-13T16:37:05.758Z,35.70
2023-04-13T16:39:33.854Z,33.70
2023-04-13T16:42:03.350Z,34.20
2023-04-13T16:44:31.330Z,31.73
2023-04-13T16:46:59.390Z,29.73
2023-04-13T16:49:27.951Z,29.40
2023-04-13T16:51:55.968Z,35.37
2023-04-13T16:54:24.339Z,29.87
2023-04-13T16:56:52.720Z,35.30
2023-04-13T16:59:22.418Z,35.20
2023-04-13T17:01:50.601Z,43.03
2023-04-13T17:04:18.839Z,41.27
2023-04-13T17:06:48.345Z,41.10
2023-04-13T17:09:16.450Z,35.60
2023-04-13T17:11:44.482Z,38.90
2023-04-13T17:14:12.430Z,51.00
2023-04-13T17:16:41.799Z,49.70
2023-04-13T17:19:09.796Z,44.90
2023-04-13T17:21:38.967Z,46.43
2023-04-13T17:24:07.887Z,51.07
2023-04-13T17:26:35.845Z,50.47
2023-04-13T17:29:03.899Z,49.13
2023-04-13T17:31:31.871Z,47.97
2023-04-13T17:34:01.192Z,49.97
2023-04-13T17:36:29.177Z,41.40
2023-04-13T17:38:57.286Z,46.47
2023-04-13T17:41:26.033Z,46.03
2023-04-13T17:43:53.997Z,45.90
2023-04-13T17:46:22.090Z,40.30
2023-04-13T17:48:50.113Z,39.27
2023-04-13T17:51:19.470Z,41.40
2023-04-13T17:53:47.389Z,43.50
2023-04-13T17:56:16.479Z,40.87
2023-04-13T17:58:45.233Z,40.57
2023-04-13T18:01:13.379Z,44.10
2023-04-13T18:03:41.549Z,44.90
2023-04-13T18:06:09.792Z,41.80
2023-04-13T18:08:39.181Z,44.27
2023-04-13T18:11:07.188Z,43.43
2023-04-13T18:13:35.370Z,43.30
2023-04-13T18:16:04.551Z,40.43
2023-04-13T18:18:32.520Z,40.73
2023-04-13T18:21:00.504Z,38.93
2023-04-13T18:23:28.540Z,46.23
2023-04-13T18:25:57.880Z,40.47
2023-04-13T18:28:25.816Z,39.17
2023-04-13T18:30:53.793Z,43.17
2023-04-13T18:33:21.777Z,42.00
2023-04-13T18:35:50.433Z,46.13
2023-04-13T18:38:18.528Z,51.57
2023-04-13T18:40:46.877Z,52.93
2023-04-13T18:43:16.157Z,52.43
2023-04-13T18:45:44.743Z,49.93
2023-04-13T18:48:12.805Z,54.33
2023-04-13T18:50:40.841Z,48.70
2023-04-13T18:53:08.868Z,53.63
2023-04-13T18:55:36.894Z,53.70
2023-04-13T18:58:04.896Z,55.00
2023-04-13T19:00:34.232Z,52.57
2023-04-13T19:03:02.853Z,49.03
2023-04-13T19:05:32.069Z,45.20
2023-04-13T19:08:00.916Z,44.27
2023-04-13T19:10:29.504Z,49.90
2023-04-13T19:12:57.533Z,45.20
2023-04-13T19:15:25.797Z,49.00
2023-04-13T19:17:55.247Z,46.53
2023-04-13T19:20:24.804Z,45.87
2023-04-13T19:22:53.082Z,50.00
2023-04-13T19:25:21.331Z,50.73
2023-04-13T19:27:50.223Z,47.03
2023-04-13T19:30:19.632Z,46.27
2023-04-13T19:32:49.645Z,52.87
2023-04-13T19:35:19.200Z,51.23
2023-04-13T19:37:47.155Z,50.47
2023-04-13T19:40:15.557Z,48.13
2023-04-13T19:42:44.751Z,47.10
2023-04-13T19:45:14.154Z,43.23
2023-04-13T19:47:43.017Z,45.40
2023-04-13T19:50:13.060Z,48.17
2023-04-13T19:52:42.933Z,49.53
2023-04-13T19:55:12.100Z,43.47
2023-04-13T19:57:42.837Z,41.60
2023-04-13T20:00:19.203Z,44.50
2023-04-13T20:02:49.706Z,46.03
2023-04-13T20:05:19.156Z,47.03
2023-04-13T20:07:49.061Z,47.87
2023-04-13T20:10:17.420Z,48.83
2023-04-13T20:12:45.419Z,49.73
2023-04-13T20:15:13.407Z,49.73
2023-04-13T20:17:41.492Z,53.63
2023-04-13T20:20:11.109Z,51.70
2023-04-13T20:22:39.887Z,58.37
2023-04-13T20:25:11.060Z,48.60
2023-04-13T20:27:42.027Z,52.80
2023-04-13T20:30:11.091Z,52.73
2023-04-13T20:32:39.200Z,52.53
2023-04-13T20:35:08.129Z,51.57
2023-04-13T20:37:36.150Z,54.03
2023-04-13T20:40:07.096Z,50.87
2023-04-13T20:42:36.515Z,48.50
2023-04-13T20:45:04.923Z,52.30
2023-04-13T20:47:35.587Z,57.60
2023-04-13T20:50:04.878Z,63.70
2023-04-13T20:52:32.895Z,59.60
2023-04-13T20:55:00.981Z,60.47
2023-04-13T20:57:28.987Z,64.90
2023-04-13T20:59:58.329Z,62.40
2023-04-13T21:02:26.599Z,58.67
2023-04-13T21:04:56.613Z,55.97
2023-04-13T21:07:24.607Z,57.20
2023-04-13T21:09:52.554Z,57.87
2023-04-13T21:12:20.568Z,60.20
2023-04-13T21:14:49.274Z,62.63
2023-04-13T21:17:18.638Z,56.30
2023-04-13T21:19:46.594Z,60.77
2023-04-13T21:22:15.878Z,63.60
2023-04-13T21:24:43.887Z,56.73
2023-04-13T21:27:12.077Z,59.87
2023-04-13T21:29:39.987Z,56.67
2023-04-13T21:32:08.074Z,57.83
2023-04-13T21:34:37.471Z,57.67
2023-04-13T21:37:05.753Z,56.67
2023-04-13T21:39:35.345Z,55.43
2023-04-13T21:42:05.669Z,56.03
2023-04-13T21:44:33.677Z,51.87
2023-04-13T21:47:01.582Z,51.80
2023-04-13T21:49:29.616Z,46.90
2023-04-13T21:51:58.929Z,52.70
2023-04-13T21:54:26.878Z,46.97
2023-04-13T21:56:55.049Z,44.93
2023-04-13T21:59:26.680Z,47.47
2023-04-13T22:01:54.828Z,44.63
2023-04-13T22:04:23.558Z,42.83
2023-04-13T22:06:51.641Z,39.10
2023-04-13T22:09:21.346Z,42.23
2023-04-13T22:11:49.305Z,41.87
2023-04-13T22:14:17.320Z,41.67
2023-04-13T22:16:46.272Z,39.33
2023-04-13T22:19:16.100Z,37.80
2023-04-13T22:21:44.314Z,37.73
2023-04-13T22:24:12.816Z,36.37
2023-04-13T22:26:42.161Z,37.03
2023-04-13T22:29:10.418Z,34.57
2023-04-13T22:31:38.445Z,38.30
2023-04-13T22:34:06.398Z,39.67
2023-04-13T22:36:34.350Z,39.40
2023-04-13T22:39:02.610Z,42.37
2023-04-13T22:41:30.818Z,36.20
2023-04-13T22:44:00.111Z,34.87
2023-04-13T22:46:28.121Z,36.93
2023-04-13T22:48:56.100Z,36.20
2023-04-13T22:51:24.110Z,35.07
2023-04-13T22:53:52.071Z,32.50
2023-04-13T22:56:20.069Z,31.00
2023-04-13T22:58:48.011Z,37.50
2023-04-13T23:01:17.373Z,34.20
2023-04-13T23:03:45.619Z,36.67
2023-04-13T23:06:13.661Z,35.10
2023-04-13T23:08:41.621Z,38.87
2023-04-13T23:11:09.888Z,38.27
2023-04-13T23:13:37.917Z,38.43
2023-04-13T23:16:06.961Z,43.70
2023-04-13T23:18:36.517Z,45.53
2023-04-13T23:21:10.840Z,40.20
2023-04-13T23:23:39.096Z,41.93
2023-04-13T23:26:07.422Z,37.13
2023-04-13T23:28:35.408Z,39.40
2023-04-13T23:31:04.599Z,40.80
2023-04-13T23:33:32.669Z,40.23
2023-04-13T23:36:02.395Z,43.63
2023-04-13T23:38:30.897Z,40.33
2023-04-13T23:40:59.477Z,45.03
2023-04-13T23:43:27.543Z,44.33
2023-04-13T23:45:56.859Z,39.80
2023-04-13T23:48:26.237Z,40.33
2023-04-13T23:50:54.536Z,42.57
2023-04-13T23:53:24.211Z,41.40
2023-04-13T23:55:52.162Z,40.90
2023-04-13T23:58:20.172Z,46.67
